sensor_id;sensor_type;location;lat;lon;timestamp;P1;durP1;ratioP1;P2;durP2;ratioP2
40154;SDS011;25875;48.202;16.334;2024-03-08T00:00:29;36.97;;;25.30;;
40154;SDS011;25875;48.202;16.334;2024-03-08T00:02:58;36.80;;;25.42;;
40154;SDS011;25875;48.202;16.334;2024-03-08T00:05:26;37.50;;;27.15;;
40154;SDS011;25875;48.202;16.334;2024-03-08T00:07:53;41.58;;;26.63;;
40154;SDS011;25875;48.202;16.334;2024-03-08T00:10:21;37.65;;;27.42;;
40154;SDS011;25875;48.202;16.334;2024-03-08T00:12:48;36.75;;;25.40;;
40154;SDS011;25875;48.202;16.334;2024-03-08T00:15:16;40.58;;;27.77;;
40154;SDS011;25875;48.202;16.334;2024-03-08T00:17:43;34.53;;;23.90;;
40154;SDS011;25875;48.202;16.334;2024-03-08T00:20:11;37.63;;;27.30;;
40154;SDS011;25875;48.202;16.334;2024-03-08T00:22:38;38.78;;;27.13;;
40154;SDS011;25875;48.202;16.334;2024-03-08T00:25:06;40.92;;;27.63;;
40154;SDS011;25875;48.202;16.334;2024-03-08T00:27:35;37.88;;;25.85;;
40154;SDS011;25875;48.202;16.334;2024-03-08T00:30:03;37.42;;;26.05;;
40154;SDS011;25875;48.202;16.334;2024-03-08T00:32:31;33.78;;;24.75;;
40154;SDS011;25875;48.202;16.334;2024-03-08T00:34:58;35.92;;;25.52;;
40154;SDS011;25875;48.202;16.334;2024-03-08T00:37:24;47.85;;;32.10;;
40154;SDS011;25875;48.202;16.334;2024-03-08T00:39:51;46.65;;;31.23;;
40154;SDS011;25875;48.202;16.334;2024-03-08T00:42:19;45.33;;;32.25;;
40154;SDS011;25875;48.202;16.334;2024-03-08T00:44:47;43.65;;;28.80;;
40154;SDS011;25875;48.202;16.334;2024-03-08T00:47:16;36.35;;;25.58;;
40154;SDS011;25875;48.202;16.334;2024-03-08T00:49:42;36.85;;;26.50;;
40154;SDS011;25875;48.202;16.334;2024-03-08T00:52:09;37.92;;;26.92;;
40154;SDS011;25875;48.202;16.334;2024-03-08T00:54:36;35.05;;;24.75;;
40154;SDS011;25875;48.202;16.334;2024-03-08T00:57:03;38.38;;;26.35;;
40154;SDS011;25875;48.202;16.334;2024-03-08T00:59:29;36.40;;;25.83;;
40154;SDS011;25875;48.202;16.334;2024-03-08T01:01:59;36.17;;;26.05;;
40154;SDS011;25875;48.202;16.334;2024-03-08T01:04:26;36.72;;;25.23;;
40154;SDS011;25875;48.202;16.334;2024-03-08T01:06:54;40.58;;;27.63;;
40154;SDS011;25875;48.202;16.334;2024-03-08T01:09:21;38.90;;;27.05;;
40154;SDS011;25875;48.202;16.334;2024-03-08T01:11:48;36.72;;;27.05;;
40154;SDS011;25875;48.202;16.334;2024-03-08T01:14:14;40.80;;;27.25;;
40154;SDS011;25875;48.202;16.334;2024-03-08T01:16:41;40.30;;;28.58;;
40154;SDS011;25875;48.202;16.334;2024-03-08T01:19:09;39.83;;;27.60;;
40154;SDS011;25875;48.202;16.334;2024-03-08T01:21:35;41.38;;;29.88;;
40154;SDS011;25875;48.202;16.334;2024-03-08T01:24:02;34.30;;;26.02;;
40154;SDS011;25875;48.202;16.334;2024-03-08T01:26:29;38.17;;;28.25;;
40154;SDS011;25875;48.202;16.334;2024-03-08T01:28:56;36.38;;;26.42;;
40154;SDS011;25875;48.202;16.334;2024-03-08T01:31:22;39.38;;;28.00;;
40154;SDS011;25875;48.202;16.334;2024-03-08T01:33:49;39.58;;;27.13;;
40154;SDS011;25875;48.202;16.334;2024-03-08T01:36:17;39.75;;;27.95;;
40154;SDS011;25875;48.202;16.334;2024-03-08T01:38:44;36.58;;;27.42;;
40154;SDS011;25875;48.202;16.334;2024-03-08T01:41:11;40.38;;;27.13;;
40154;SDS011;25875;48.202;16.334;2024-03-08T01:43:39;37.13;;;26.77;;
40154;SDS011;25875;48.202;16.334;2024-03-08T01:46:05;44.20;;;27.75;;
40154;SDS011;25875;48.202;16.334;2024-03-08T01:48:35;38.95;;;26.70;;
40154;SDS011;25875;48.202;16.334;2024-03-08T01:51:03;38.72;;;28.20;;
40154;SDS011;25875;48.202;16.334;2024-03-08T01:53:32;39.00;;;26.13;;
40154;SDS011;25875;48.202;16.334;2024-03-08T01:55:59;40.13;;;27.90;;
40154;SDS011;25875;48.202;16.334;2024-03-08T01:58:27;44.72;;;28.45;;
40154;SDS011;25875;48.202;16.334;2024-03-08T02:00:56;45.45;;;27.65;;
40154;SDS011;25875;48.202;16.334;2024-03-08T02:03:23;37.40;;;28.17;;
40154;SDS011;25875;48.202;16.334;2024-03-08T02:05:50;36.47;;;27.02;;
40154;SDS011;25875;48.202;16.334;2024-03-08T02:08:17;41.50;;;29.13;;
40154;SDS011;25875;48.202;16.334;2024-03-08T02:10:45;40.85;;;27.33;;
40154;SDS011;25875;48.202;16.334;2024-03-08T02:13:12;36.95;;;27.20;;
40154;SDS011;25875;48.202;16.334;2024-03-08T02:15:52;37.15;;;27.02;;
40154;SDS011;25875;48.202;16.334;2024-03-08T02:18:19;39.45;;;27.42;;
40154;SDS011;25875;48.202;16.334;2024-03-08T02:20:48;36.85;;;27.17;;
40154;SDS011;25875;48.202;16.334;2024-03-08T02:23:15;35.08;;;26.05;;
40154;SDS011;25875;48.202;16.334;2024-03-08T02:25:42;35.72;;;25.98;;
40154;SDS011;25875;48.202;16.334;2024-03-08T02:28:09;35.88;;;26.48;;
40154;SDS011;25875;48.202;16.334;2024-03-08T02:30:37;40.45;;;27.48;;
40154;SDS011;25875;48.202;16.334;2024-03-08T02:33:04;40.42;;;27.20;;
40154;SDS011;25875;48.202;16.334;2024-03-08T02:35:31;39.28;;;28.58;;
40154;SDS011;25875;48.202;16.334;2024-03-08T02:37:59;41.08;;;28.27;;
40154;SDS011;25875;48.202;16.334;2024-03-08T02:40:25;36.50;;;27.05;;
40154;SDS011;25875;48.202;16.334;2024-03-08T02:42:52;40.22;;;28.30;;
40154;SDS011;25875;48.202;16.334;2024-03-08T02:45:19;41.40;;;29.33;;
40154;SDS011;25875;48.202;16.334;2024-03-08T02:47:46;41.65;;;26.90;;
40154;SDS011;25875;48.202;16.334;2024-03-08T02:50:14;41.95;;;28.38;;
40154;SDS011;25875;48.202;16.334;2024-03-08T02:52:41;43.40;;;28.98;;
40154;SDS011;25875;48.202;16.334;2024-03-08T02:55:10;36.08;;;26.17;;
40154;SDS011;25875;48.202;16.334;2024-03-08T02:57:40;40.20;;;27.58;;
40154;SDS011;25875;48.202;16.334;2024-03-08T03:00:07;39.90;;;27.20;;
40154;SDS011;25875;48.202;16.334;2024-03-08T03:02:35;38.45;;;26.77;;
40154;SDS011;25875;48.202;16.334;2024-03-08T03:05:02;41.35;;;28.00;;
40154;SDS011;25875;48.202;16.334;2024-03-08T03:07:31;38.55;;;26.92;;
40154;SDS011;25875;48.202;16.334;2024-03-08T03:09:58;38.95;;;28.15;;
40154;SDS011;25875;48.202;16.334;2024-03-08T03:12:26;38.22;;;27.33;;
40154;SDS011;25875;48.202;16.334;2024-03-08T03:14:53;36.08;;;27.10;;
40154;SDS011;25875;48.202;16.334;2024-03-08T03:17:21;39.70;;;27.05;;
40154;SDS011;25875;48.202;16.334;2024-03-08T03:19:48;39.42;;;28.33;;
40154;SDS011;25875;48.202;16.334;2024-03-08T03:22:14;38.38;;;26.98;;
40154;SDS011;25875;48.202;16.334;2024-03-08T03:24:41;36.35;;;26.38;;
40154;SDS011;25875;48.202;16.334;2024-03-08T03:27:08;40.42;;;28.38;;
40154;SDS011;25875;48.202;16.334;2024-03-08T03:29:38;42.05;;;28.58;;
40154;SDS011;25875;48.202;16.334;2024-03-08T03:32:05;39.65;;;28.52;;
40154;SDS011;25875;48.202;16.334;2024-03-08T03:34:33;40.10;;;28.98;;
40154;SDS011;25875;48.202;16.334;2024-03-08T03:37:01;39.92;;;27.35;;
40154;SDS011;25875;48.202;16.334;2024-03-08T03:39:28;36.03;;;25.13;;
40154;SDS011;25875;48.202;16.334;2024-03-08T03:41:56;37.60;;;27.40;;
40154;SDS011;25875;48.202;16.334;2024-03-08T03:44:23;38.88;;;27.17;;
40154;SDS011;25875;48.202;16.334;2024-03-08T03:46:51;39.85;;;27.83;;
40154;SDS011;25875;48.202;16.334;2024-03-08T03:49:18;41.95;;;27.73;;
40154;SDS011;25875;48.202;16.334;2024-03-08T03:51:44;45.95;;;27.52;;
40154;SDS011;25875;48.202;16.334;2024-03-08T03:54:11;41.25;;;26.70;;
40154;SDS011;25875;48.202;16.334;2024-03-08T03:56:38;41.13;;;27.77;;
40154;SDS011;25875;48.202;16.334;2024-03-08T03:59:05;42.30;;;29.63;;
40154;SDS011;25875;48.202;16.334;2024-03-08T04:01:32;38.35;;;25.50;;
40154;SDS011;25875;48.202;16.334;2024-03-08T04:04:00;36.70;;;26.63;;
40154;SDS011;25875;48.202;16.334;2024-03-08T04:06:27;38.25;;;26.25;;
40154;SDS011;25875;48.202;16.334;2024-03-08T04:08:54;40.92;;;29.45;;
40154;SDS011;25875;48.202;16.334;2024-03-08T04:11:21;39.90;;;27.40;;
40154;SDS011;25875;48.202;16.334;2024-03-08T04:13:47;39.22;;;28.08;;
40154;SDS011;25875;48.202;16.334;2024-03-08T04:16:14;42.10;;;29.02;;
40154;SDS011;25875;48.202;16.334;2024-03-08T04:18:41;41.90;;;28.88;;
40154;SDS011;25875;48.202;16.334;2024-03-08T04:21:10;40.30;;;29.40;;
40154;SDS011;25875;48.202;16.334;2024-03-08T04:23:36;39.10;;;27.83;;
40154;SDS011;25875;48.202;16.334;2024-03-08T04:26:03;40.78;;;27.65;;
40154;SDS011;25875;48.202;16.334;2024-03-08T04:28:31;42.63;;;27.83;;
40154;SDS011;25875;48.202;16.334;2024-03-08T04:30:58;39.35;;;27.10;;
40154;SDS011;25875;48.202;16.334;2024-03-08T04:33:25;36.85;;;27.75;;
40154;SDS011;25875;48.202;16.334;2024-03-08T04:35:53;39.75;;;26.50;;
40154;SDS011;25875;48.202;16.334;2024-03-08T04:38:21;40.63;;;28.63;;
40154;SDS011;25875;48.202;16.334;2024-03-08T04:40:48;41.40;;;28.65;;
40154;SDS011;25875;48.202;16.334;2024-03-08T04:43:15;41.80;;;28.80;;
40154;SDS011;25875;48.202;16.334;2024-03-08T04:45:43;43.65;;;29.40;;
40154;SDS011;25875;48.202;16.334;2024-03-08T04:48:10;39.28;;;27.67;;
40154;SDS011;25875;48.202;16.334;2024-03-08T04:50:36;41.15;;;28.95;;
40154;SDS011;25875;48.202;16.334;2024-03-08T04:53:05;38.15;;;27.27;;
40154;SDS011;25875;48.202;16.334;2024-03-08T04:55:34;39.22;;;27.90;;
40154;SDS011;25875;48.202;16.334;2024-03-08T04:58:02;38.80;;;25.85;;
40154;SDS011;25875;48.202;16.334;2024-03-08T05:00:30;38.80;;;26.45;;
40154;SDS011;25875;48.202;16.334;2024-03-08T05:02:57;36.47;;;28.52;;
40154;SDS011;25875;48.202;16.334;2024-03-08T05:05:24;37.45;;;28.35;;
40154;SDS011;25875;48.202;16.334;2024-03-08T05:07:51;44.28;;;28.73;;
40154;SDS011;25875;48.202;16.334;2024-03-08T05:10:18;42.13;;;28.33;;
40154;SDS011;25875;48.202;16.334;2024-03-08T05:12:46;40.50;;;27.63;;
40154;SDS011;25875;48.202;16.334;2024-03-08T05:15:13;37.03;;;26.88;;
40154;SDS011;25875;48.202;16.334;2024-03-08T05:17:40;39.30;;;27.52;;
40154;SDS011;25875;48.202;16.334;2024-03-08T05:20:07;40.28;;;29.25;;
40154;SDS011;25875;48.202;16.334;2024-03-08T05:22:37;41.53;;;29.35;;
40154;SDS011;25875;48.202;16.334;2024-03-08T05:25:05;38.80;;;28.25;;
40154;SDS011;25875;48.202;16.334;2024-03-08T05:27:33;40.67;;;28.60;;
40154;SDS011;25875;48.202;16.334;2024-03-08T05:30:01;36.50;;;27.13;;
40154;SDS011;25875;48.202;16.334;2024-03-08T05:32:29;43.20;;;30.10;;
40154;SDS011;25875;48.202;16.334;2024-03-08T05:34:55;38.03;;;27.77;;
40154;SDS011;25875;48.202;16.334;2024-03-08T05:37:22;37.92;;;28.27;;
40154;SDS011;25875;48.202;16.334;2024-03-08T05:39:48;39.17;;;30.08;;
40154;SDS011;25875;48.202;16.334;2024-03-08T05:42:15;38.20;;;27.05;;
40154;SDS011;25875;48.202;16.334;2024-03-08T05:44:42;41.08;;;27.83;;
40154;SDS011;25875;48.202;16.334;2024-03-08T05:47:10;42.40;;;30.52;;
40154;SDS011;25875;48.202;16.334;2024-03-08T05:49:36;41.80;;;28.58;;
40154;SDS011;25875;48.202;16.334;2024-03-08T05:52:04;39.13;;;29.23;;
40154;SDS011;25875;48.202;16.334;2024-03-08T05:54:31;41.05;;;28.63;;
40154;SDS011;25875;48.202;16.334;2024-03-08T05:56:58;39.22;;;28.83;;
40154;SDS011;25875;48.202;16.334;2024-03-08T05:59:24;44.75;;;29.75;;
40154;SDS011;25875;48.202;16.334;2024-03-08T06:01:52;37.97;;;28.60;;
40154;SDS011;25875;48.202;16.334;2024-03-08T06:04:20;40.40;;;27.58;;
40154;SDS011;25875;48.202;16.334;2024-03-08T06:06:46;42.40;;;29.48;;
40154;SDS011;25875;48.202;16.334;2024-03-08T06:09:13;44.13;;;27.55;;
40154;SDS011;25875;48.202;16.334;2024-03-08T06:11:47;42.17;;;28.92;;
40154;SDS011;25875;48.202;16.334;2024-03-08T06:14:14;39.95;;;29.23;;
40154;SDS011;25875;48.202;16.334;2024-03-08T06:16:43;40.45;;;30.33;;
40154;SDS011;25875;48.202;16.334;2024-03-08T06:19:10;39.92;;;27.90;;
40154;SDS011;25875;48.202;16.334;2024-03-08T06:21:38;44.75;;;29.13;;
40154;SDS011;25875;48.202;16.334;2024-03-08T06:24:06;41.50;;;29.10;;
40154;SDS011;25875;48.202;16.334;2024-03-08T06:26:32;44.05;;;28.65;;
40154;SDS011;25875;48.202;16.334;2024-03-08T06:28:59;42.72;;;28.75;;
40154;SDS011;25875;48.202;16.334;2024-03-08T06:31:26;43.13;;;30.08;;
40154;SDS011;25875;48.202;16.334;2024-03-08T06:33:52;43.88;;;30.48;;
40154;SDS011;25875;48.202;16.334;2024-03-08T06:36:19;41.50;;;29.00;;
40154;SDS011;25875;48.202;16.334;2024-03-08T06:38:48;43.10;;;30.75;;
40154;SDS011;25875;48.202;16.334;2024-03-08T06:41:14;41.47;;;28.63;;
40154;SDS011;25875;48.202;16.334;2024-03-08T06:43:41;37.55;;;26.55;;
40154;SDS011;25875;48.202;16.334;2024-03-08T06:46:08;42.15;;;28.40;;
40154;SDS011;25875;48.202;16.334;2024-03-08T06:48:37;36.17;;;28.08;;
40154;SDS011;25875;48.202;16.334;2024-03-08T06:51:04;41.65;;;28.20;;
40154;SDS011;25875;48.202;16.334;2024-03-08T06:53:31;43.55;;;29.15;;
40154;SDS011;25875;48.202;16.334;2024-03-08T06:56:01;39.58;;;30.00;;
40154;SDS011;25875;48.202;16.334;2024-03-08T06:58:28;43.97;;;30.30;;
40154;SDS011;25875;48.202;16.334;2024-03-08T07:00:55;38.47;;;29.40;;
40154;SDS011;25875;48.202;16.334;2024-03-08T07:03:23;41.35;;;28.95;;
40154;SDS011;25875;48.202;16.334;2024-03-08T07:05:51;39.42;;;27.38;;
40154;SDS011;25875;48.202;16.334;2024-03-08T07:08:18;40.60;;;27.75;;
40154;SDS011;25875;48.202;16.334;2024-03-08T07:10:47;40.70;;;29.05;;
40154;SDS011;25875;48.202;16.334;2024-03-08T07:13:15;43.42;;;29.23;;
40154;SDS011;25875;48.202;16.334;2024-03-08T07:15:43;39.83;;;27.90;;
40154;SDS011;25875;48.202;16.334;2024-03-08T07:18:10;43.17;;;30.20;;
40154;SDS011;25875;48.202;16.334;2024-03-08T07:20:39;43.90;;;29.17;;
40154;SDS011;25875;48.202;16.334;2024-03-08T07:23:07;43.53;;;28.02;;
40154;SDS011;25875;48.202;16.334;2024-03-08T07:25:35;38.45;;;27.50;;
40154;SDS011;25875;48.202;16.334;2024-03-08T07:28:04;42.13;;;27.80;;
40154;SDS011;25875;48.202;16.334;2024-03-08T07:30:33;39.78;;;28.90;;
40154;SDS011;25875;48.202;16.334;2024-03-08T07:33:26;40.65;;;28.77;;
40154;SDS011;25875;48.202;16.334;2024-03-08T07:35:53;38.60;;;26.45;;
40154;SDS011;25875;48.202;16.334;2024-03-08T07:38:19;40.28;;;28.40;;
40154;SDS011;25875;48.202;16.334;2024-03-08T07:40:46;43.67;;;29.23;;
40154;SDS011;25875;48.202;16.334;2024-03-08T07:43:13;37.92;;;26.85;;
40154;SDS011;25875;48.202;16.334;2024-03-08T07:45:41;41.80;;;29.58;;
40154;SDS011;25875;48.202;16.334;2024-03-08T07:48:08;40.20;;;28.08;;
40154;SDS011;25875;48.202;16.334;2024-03-08T07:50:35;43.30;;;29.75;;
40154;SDS011;25875;48.202;16.334;2024-03-08T07:53:02;46.05;;;31.13;;
40154;SDS011;25875;48.202;16.334;2024-03-08T07:55:31;50.30;;;30.10;;
40154;SDS011;25875;48.202;16.334;2024-03-08T07:57:58;41.65;;;29.50;;
40154;SDS011;25875;48.202;16.334;2024-03-08T08:00:24;48.30;;;30.70;;
40154;SDS011;25875;48.202;16.334;2024-03-08T08:02:54;46.22;;;32.00;;
40154;SDS011;25875;48.202;16.334;2024-03-08T08:05:21;44.67;;;28.38;;
40154;SDS011;25875;48.202;16.334;2024-03-08T08:07:47;45.05;;;30.90;;
40154;SDS011;25875;48.202;16.334;2024-03-08T08:10:15;43.30;;;29.63;;
40154;SDS011;25875;48.202;16.334;2024-03-08T08:12:43;51.72;;;31.23;;
40154;SDS011;25875;48.202;16.334;2024-03-08T08:15:11;47.85;;;29.27;;
40154;SDS011;25875;48.202;16.334;2024-03-08T08:17:38;41.22;;;26.58;;
40154;SDS011;25875;48.202;16.334;2024-03-08T08:20:06;47.08;;;31.10;;
40154;SDS011;25875;48.202;16.334;2024-03-08T08:22:34;46.38;;;30.27;;
40154;SDS011;25875;48.202;16.334;2024-03-08T08:25:00;41.80;;;29.17;;
40154;SDS011;25875;48.202;16.334;2024-03-08T08:27:28;45.45;;;29.80;;
40154;SDS011;25875;48.202;16.334;2024-03-08T08:29:55;46.05;;;30.50;;
40154;SDS011;25875;48.202;16.334;2024-03-08T08:32:22;43.47;;;28.17;;
40154;SDS011;25875;48.202;16.334;2024-03-08T08:34:48;49.70;;;30.08;;
40154;SDS011;25875;48.202;16.334;2024-03-08T08:37:17;48.85;;;31.08;;
40154;SDS011;25875;48.202;16.334;2024-03-08T08:39:44;51.10;;;31.65;;
40154;SDS011;25875;48.202;16.334;2024-03-08T08:42:10;47.08;;;28.65;;
40154;SDS011;25875;48.202;16.334;2024-03-08T08:44:38;47.15;;;29.13;;
40154;SDS011;25875;48.202;16.334;2024-03-08T08:47:04;49.35;;;29.52;;
40154;SDS011;25875;48.202;16.334;2024-03-08T08:49:31;50.30;;;32.22;;
40154;SDS011;25875;48.202;16.334;2024-03-08T08:51:58;48.97;;;31.40;;
40154;SDS011;25875;48.202;16.334;2024-03-08T08:54:26;53.60;;;34.20;;
40154;SDS011;25875;48.202;16.334;2024-03-08T08:56:53;48.15;;;31.15;;
40154;SDS011;25875;48.202;16.334;2024-03-08T08:59:20;58.25;;;33.00;;
40154;SDS011;25875;48.202;16.334;2024-03-08T09:01:48;49.63;;;31.35;;
40154;SDS011;25875;48.202;16.334;2024-03-08T09:04:15;57.80;;;32.40;;
40154;SDS011;25875;48.202;16.334;2024-03-08T09:06:42;52.42;;;31.63;;
40154;SDS011;25875;48.202;16.334;2024-03-08T09:09:10;57.90;;;33.55;;
40154;SDS011;25875;48.202;16.334;2024-03-08T09:11:39;57.70;;;33.92;;
40154;SDS011;25875;48.202;16.334;2024-03-08T09:14:07;51.95;;;31.83;;
40154;SDS011;25875;48.202;16.334;2024-03-08T09:16:34;54.28;;;33.78;;
40154;SDS011;25875;48.202;16.334;2024-03-08T09:19:02;58.67;;;32.03;;
40154;SDS011;25875;48.202;16.334;2024-03-08T09:21:28;57.40;;;32.58;;
40154;SDS011;25875;48.202;16.334;2024-03-08T09:23:56;54.45;;;32.70;;
40154;SDS011;25875;48.202;16.334;2024-03-08T09:26:23;44.67;;;29.27;;
40154;SDS011;25875;48.202;16.334;2024-03-08T09:28:52;55.40;;;31.60;;
40154;SDS011;25875;48.202;16.334;2024-03-08T09:31:19;52.05;;;31.75;;
40154;SDS011;25875;48.202;16.334;2024-03-08T09:33:46;48.75;;;29.58;;
40154;SDS011;25875;48.202;16.334;2024-03-08T09:36:13;53.47;;;30.50;;
40154;SDS011;25875;48.202;16.334;2024-03-08T09:38:40;50.53;;;29.92;;
40154;SDS011;25875;48.202;16.334;2024-03-08T09:41:06;51.70;;;29.35;;
40154;SDS011;25875;48.202;16.334;2024-03-08T09:43:34;50.55;;;30.75;;
40154;SDS011;25875;48.202;16.334;2024-03-08T09:46:03;50.28;;;28.67;;
40154;SDS011;25875;48.202;16.334;2024-03-08T09:48:31;45.30;;;27.95;;
40154;SDS011;25875;48.202;16.334;2024-03-08T09:50:58;48.92;;;28.80;;
40154;SDS011;25875;48.202;16.334;2024-03-08T09:53:24;52.83;;;30.55;;
40154;SDS011;25875;48.202;16.334;2024-03-08T09:55:51;51.72;;;31.00;;
40154;SDS011;25875;48.202;16.334;2024-03-08T09:58:18;49.63;;;29.20;;
40154;SDS011;25875;48.202;16.334;2024-03-08T10:01:05;51.58;;;29.45;;
40154;SDS011;25875;48.202;16.334;2024-03-08T10:03:31;49.78;;;27.17;;
40154;SDS011;25875;48.202;16.334;2024-03-08T10:05:58;45.72;;;28.38;;
40154;SDS011;25875;48.202;16.334;2024-03-08T10:08:25;45.35;;;26.40;;
40154;SDS011;25875;48.202;16.334;2024-03-08T10:10:52;44.78;;;26.10;;
40154;SDS011;25875;48.202;16.334;2024-03-08T10:13:19;46.97;;;27.85;;
40154;SDS011;25875;48.202;16.334;2024-03-08T10:15:45;44.67;;;27.90;;
40154;SDS011;25875;48.202;16.334;2024-03-08T10:18:13;45.63;;;25.48;;
40154;SDS011;25875;48.202;16.334;2024-03-08T10:20:40;42.15;;;24.75;;
40154;SDS011;25875;48.202;16.334;2024-03-08T10:23:08;39.33;;;25.02;;
40154;SDS011;25875;48.202;16.334;2024-03-08T10:25:35;33.85;;;23.05;;
40154;SDS011;25875;48.202;16.334;2024-03-08T10:28:03;40.15;;;23.40;;
40154;SDS011;25875;48.202;16.334;2024-03-08T10:30:30;41.20;;;26.20;;
40154;SDS011;25875;48.202;16.334;2024-03-08T10:32:57;37.35;;;23.75;;
40154;SDS011;25875;48.202;16.334;2024-03-08T10:35:25;36.13;;;23.25;;
40154;SDS011;25875;48.202;16.334;2024-03-08T10:37:52;46.83;;;25.00;;
40154;SDS011;25875;48.202;16.334;2024-03-08T10:40:24;36.92;;;24.20;;
40154;SDS011;25875;48.202;16.334;2024-03-08T10:42:52;36.90;;;23.10;;
40154;SDS011;25875;48.202;16.334;2024-03-08T10:45:23;32.42;;;21.73;;
40154;SDS011;25875;48.202;16.334;2024-03-08T10:48:01;29.70;;;19.20;;
40154;SDS011;25875;48.202;16.334;2024-03-08T10:50:49;32.63;;;19.15;;
40154;SDS011;25875;48.202;16.334;2024-03-08T10:53:17;32.35;;;20.30;;
40154;SDS011;25875;48.202;16.334;2024-03-08T10:55:46;36.63;;;20.45;;
40154;SDS011;25875;48.202;16.334;2024-03-08T10:58:14;31.45;;;20.08;;
40154;SDS011;25875;48.202;16.334;2024-03-08T11:00:42;31.63;;;20.73;;
40154;SDS011;25875;48.202;16.334;2024-03-08T11:03:14;31.38;;;20.70;;
40154;SDS011;25875;48.202;16.334;2024-03-08T11:06:15;28.17;;;18.02;;
40154;SDS011;25875;48.202;16.334;2024-03-08T11:08:43;28.67;;;18.77;;
40154;SDS011;25875;48.202;16.334;2024-03-08T11:11:23;28.83;;;19.33;;
40154;SDS011;25875;48.202;16.334;2024-03-08T11:13:55;26.10;;;17.42;;
40154;SDS011;25875;48.202;16.334;2024-03-08T11:16:38;28.65;;;18.52;;
40154;SDS011;25875;48.202;16.334;2024-03-08T11:19:24;27.00;;;16.70;;
40154;SDS011;25875;48.202;16.334;2024-03-08T11:21:58;24.35;;;16.48;;
40154;SDS011;25875;48.202;16.334;2024-03-08T11:24:26;23.02;;;16.80;;
40154;SDS011;25875;48.202;16.334;2024-03-08T11:26:56;23.15;;;15.43;;
40154;SDS011;25875;48.202;16.334;2024-03-08T11:29:35;21.50;;;15.27;;
40154;SDS011;25875;48.202;16.334;2024-03-08T11:32:05;19.30;;;12.68;;
40154;SDS011;25875;48.202;16.334;2024-03-08T11:34:34;17.10;;;11.10;;
40154;SDS011;25875;48.202;16.334;2024-03-08T11:37:04;16.67;;;12.07;;
40154;SDS011;25875;48.202;16.334;2024-03-08T11:39:34;15.90;;;11.65;;
40154;SDS011;25875;48.202;16.334;2024-03-08T11:42:04;18.23;;;12.68;;
40154;SDS011;25875;48.202;16.334;2024-03-08T11:44:32;15.00;;;11.10;;
40154;SDS011;25875;48.202;16.334;2024-03-08T11:46:58;13.25;;;10.27;;
40154;SDS011;25875;48.202;16.334;2024-03-08T11:49:25;14.82;;;11.18;;
40154;SDS011;25875;48.202;16.334;2024-03-08T11:51:52;18.25;;;12.73;;
40154;SDS011;25875;48.202;16.334;2024-03-08T11:54:21;16.02;;;11.32;;
40154;SDS011;25875;48.202;16.334;2024-03-08T11:56:48;15.20;;;10.45;;
40154;SDS011;25875;48.202;16.334;2024-03-08T11:59:17;17.65;;;12.93;;
40154;SDS011;25875;48.202;16.334;2024-03-08T12:01:56;17.05;;;12.02;;
40154;SDS011;25875;48.202;16.334;2024-03-08T12:04:30;14.75;;;11.65;;
40154;SDS011;25875;48.202;16.334;2024-03-08T12:06:59;18.25;;;12.07;;
40154;SDS011;25875;48.202;16.334;2024-03-08T12:09:28;16.00;;;11.80;;
40154;SDS011;25875;48.202;16.334;2024-03-08T12:11:55;15.95;;;11.43;;
40154;SDS011;25875;48.202;16.334;2024-03-08T12:14:22;16.50;;;12.13;;
40154;SDS011;25875;48.202;16.334;2024-03-08T12:16:50;17.63;;;13.00;;
40154;SDS011;25875;48.202;16.334;2024-03-08T12:19:17;20.88;;;13.25;;
40154;SDS011;25875;48.202;16.334;2024-03-08T12:21:44;17.20;;;12.55;;
40154;SDS011;25875;48.202;16.334;2024-03-08T12:24:14;18.08;;;12.32;;
40154;SDS011;25875;48.202;16.334;2024-03-08T12:26:45;22.25;;;13.63;;
40154;SDS011;25875;48.202;16.334;2024-03-08T12:29:14;16.98;;;12.80;;
40154;SDS011;25875;48.202;16.334;2024-03-08T12:31:43;17.70;;;13.02;;
40154;SDS011;25875;48.202;16.334;2024-03-08T12:34:11;17.25;;;12.98;;
40154;SDS011;25875;48.202;16.334;2024-03-08T12:36:43;20.75;;;13.65;;
40154;SDS011;25875;48.202;16.334;2024-03-08T12:39:12;23.33;;;15.65;;
40154;SDS011;25875;48.202;16.334;2024-03-08T12:41:41;18.65;;;14.30;;
40154;SDS011;25875;48.202;16.334;2024-03-08T12:44:09;21.15;;;14.55;;
40154;SDS011;25875;48.202;16.334;2024-03-08T12:46:37;18.08;;;14.15;;
40154;SDS011;25875;48.202;16.334;2024-03-08T12:49:06;19.05;;;14.32;;
40154;SDS011;25875;48.202;16.334;2024-03-08T12:51:34;19.13;;;13.35;;
40154;SDS011;25875;48.202;16.334;2024-03-08T12:54:02;18.50;;;13.00;;
40154;SDS011;25875;48.202;16.334;2024-03-08T12:56:29;18.73;;;13.30;;
40154;SDS011;25875;48.202;16.334;2024-03-08T12:58:58;20.33;;;14.15;;
40154;SDS011;25875;48.202;16.334;2024-03-08T13:01:26;20.77;;;14.27;;
40154;SDS011;25875;48.202;16.334;2024-03-08T13:03:53;17.48;;;13.20;;
40154;SDS011;25875;48.202;16.334;2024-03-08T13:06:21;17.67;;;12.70;;
40154;SDS011;25875;48.202;16.334;2024-03-08T13:08:49;15.95;;;11.40;;
40154;SDS011;25875;48.202;16.334;2024-03-08T13:11:16;16.27;;;11.18;;
40154;SDS011;25875;48.202;16.334;2024-03-08T13:13:44;13.68;;;11.13;;
40154;SDS011;25875;48.202;16.334;2024-03-08T13:16:12;15.30;;;11.45;;
40154;SDS011;25875;48.202;16.334;2024-03-08T13:18:41;18.27;;;13.52;;
40154;SDS011;25875;48.202;16.334;2024-03-08T13:21:08;18.83;;;11.65;;
40154;SDS011;25875;48.202;16.334;2024-03-08T13:23:36;17.52;;;11.27;;
40154;SDS011;25875;48.202;16.334;2024-03-08T13:26:05;14.60;;;10.77;;
40154;SDS011;25875;48.202;16.334;2024-03-08T13:28:32;16.67;;;11.30;;
40154;SDS011;25875;48.202;16.334;2024-03-08T13:31:02;14.63;;;11.18;;
40154;SDS011;25875;48.202;16.334;2024-03-08T13:33:32;15.02;;;10.50;;
40154;SDS011;25875;48.202;16.334;2024-03-08T13:36:03;15.38;;;11.98;;
40154;SDS011;25875;48.202;16.334;2024-03-08T13:38:31;15.02;;;11.43;;
40154;SDS011;25875;48.202;16.334;2024-03-08T13:40:59;16.38;;;11.32;;
40154;SDS011;25875;48.202;16.334;2024-03-08T13:43:25;13.70;;;10.10;;
40154;SDS011;25875;48.202;16.334;2024-03-08T13:45:54;14.38;;;10.48;;
40154;SDS011;25875;48.202;16.334;2024-03-08T13:48:21;15.57;;;11.63;;
40154;SDS011;25875;48.202;16.334;2024-03-08T13:50:47;15.65;;;11.43;;
40154;SDS011;25875;48.202;16.334;2024-03-08T13:53:16;14.60;;;11.15;;
40154;SDS011;25875;48.202;16.334;2024-03-08T13:55:43;15.60;;;11.80;;
40154;SDS011;25875;48.202;16.334;2024-03-08T13:58:10;16.30;;;12.57;;
40154;SDS011;25875;48.202;16.334;2024-03-08T14:00:39;16.20;;;11.93;;
40154;SDS011;25875;48.202;16.334;2024-03-08T14:03:08;20.58;;;13.10;;
40154;SDS011;25875;48.202;16.334;2024-03-08T14:05:38;14.30;;;10.73;;
40154;SDS011;25875;48.202;16.334;2024-03-08T14:08:06;14.68;;;11.68;;
40154;SDS011;25875;48.202;16.334;2024-03-08T14:10:35;16.80;;;11.75;;
40154;SDS011;25875;48.202;16.334;2024-03-08T14:13:02;14.95;;;11.75;;